Главная страница
METAR-TAF:

METAR-TAF

Аэропорты :

Сальвадор, Сальвадор

широта: 13-26N, долгота: 089-03W, высота над уровнем моря: 25 м

Текущие метеонаблюдения

Эта сводка был подготовлена 37 минут назад, в 16:50 UTC
Ветер 13 Узел от северо-северо-восточный с порывами до 23 Узел, изменяющийся между северно-северо-западный и северо-восточный
Температура 32°C
Влажность 36%
Давление 1013 hPa
Видимость 10 км и более
Нет облачности ниже 1500 м, и нет кучево-дождевой облачности

METAR: MSLP 191650Z 02013G23KT 340V050 CAVOK 32/15 Q1013 A2992 NOSIG

Время: 11:27 (17:27 UTC)

Прогноз

Эта сводка был подготовлена 8 часа и 2 минут назад, в 09:25 UTC
Прогноз действительный с 19-го 12 UTC до 20-го 12 UTC
Ветер 12 Узел от северо-северо-восточный с порывами до 23 Узел
Видимость 10 км и более
Нет облачности ниже 1500 м, и нет кучево-дождевой облачности

TAF: MSLP 190925Z 1912/2012 02012G23KT CAVOK TX33/1918Z TN22/1912Z

Метеонаблюдения и прогнозы для более 4000 аэропортов (сводки METAR и TAF).

Имеющиеся станции представлены на карте желтыми и красными точками.

Чтобы увидеть название станции, наведите на нее мышь.

Затем щелкните, чтобы увидеть метеонаблюдения и метеопрогнозы.

Управление картой: чтобы увеличить масштаб, щелкните зеленые кнопки с черным крестиком; чтобы уменьшить масштаб, щелкните зеленую кнопку с тире; для просмотра соседних карт щелкайте зеленые стрелки.


METAR-TAF: